Time;durP1;ratioP1;P1;durP2;ratioP2;P2;SDS_P1;SDS_P2;PMS_P1;PMS_P2;Temp;Humidity;BMP_temperature;BMP_pressure;BME280_temperature;BME280_humidity;BME280_pressure;Samples;Min_cycle;Max_cycle;Signal;HPM_P1;HPM_P2
2022/07/01 18:02:32;;;;;;;7.18;2.78;;;;;;;20.38;85.34;100599.84;2070045;28;20441;-62
2022/07/01 18:03:38;;;;;;;4.88;2.45;;;;;;;20.25;85.59;100611.94;2073318;28;20021;-61
2022/07/01 18:04:43;;;;;;;9.48;3.10;;;;;;;20.19;85.73;100622.28;2087162;28;20100;-61
2022/07/01 18:05:45;;;;;;;6.60;3.40;;;;;;;20.22;85.90;100623.53;2087474;28;20045;-59
2022/07/01 18:06:49;;;;;;;8.55;2.88;;;;;;;20.28;85.73;100636.63;2067325;28;20057;-62
2022/07/01 18:08:01;;;;;;;6.93;2.80;;;;;;;20.41;85.89;100655.72;2056463;28;20054;-61
2022/07/01 18:09:05;;;;;;;9.52;3.58;;;;;;;20.48;85.50;100642.28;2064855;28;20046;-64
2022/07/01 18:10:09;;;;;;;4.13;2.90;;;;;;;20.55;84.98;100651.53;2077531;28;20037;-61
2022/07/01 18:11:21;;;;;;;8.30;3.78;;;;;;;20.60;84.99;100647.75;2070599;28;20026;-60
2022/07/01 18:12:40;;;;;;;8.70;3.80;;;;;;;20.64;84.70;100661.53;2072800;28;20487;-60
2022/07/01 18:13:45;;;;;;;;;;;;;;;20.69;84.72;100673.03;2068111;28;20338;-61
2022/07/01 18:14:49;;;;;;;8.30;4.63;;;;;;;20.75;84.72;100688.03;2068755;28;20277;-63
2022/07/01 18:15:59;;;;;;;6.10;3.10;;;;;;;20.75;84.36;100706.38;2054302;28;20701;-62
2022/07/01 18:17:16;;;;;;;8.75;3.20;;;;;;;20.79;83.94;100718.19;2069725;28;20045;-62
2022/07/01 18:18:20;;;;;;;5.78;2.83;;;;;;;20.85;83.49;100719.56;2067490;28;20037;-64
2022/07/01 18:19:33;;;;;;;4.47;3.03;;;;;;;20.87;83.43;100721.94;2076035;28;20151;-71
2022/07/01 18:20:46;;;;;;;6.57;3.15;;;;;;;20.89;83.29;100736.06;2072203;28;20493;-68
2022/07/01 18:21:53;;;;;;;4.40;2.75;;;;;;;20.89;83.17;100755.19;2070179;28;20125;-61
2022/07/01 18:23:07;;;;;;;4.72;2.88;;;;;;;20.89;83.09;100772.38;2069057;28;20042;-62
2022/07/01 18:24:17;;;;;;;6.40;2.92;;;;;;;20.93;83.02;100777.97;2068445;28;20038;-65
2022/07/01 18:25:26;;;;;;;5.30;3.08;;;;;;;20.96;82.94;100780.81;2069502;28;20072;-64
2022/07/01 18:26:30;;;;;;;5.05;3.22;;;;;;;20.99;83.03;100782.06;2065395;28;20034;-62
2022/07/01 18:27:57;;;;;;;3.88;2.42;;;;;;;21.00;83.14;100787.19;2064130;28;20045;-62
2022/07/01 18:29:03;;;;;;;4.30;2.80;;;;;;;21.00;82.69;100776.25;2068340;28;20041;-64
2022/07/01 18:30:09;;;;;;;3.90;3.00;;;;;;;20.98;82.36;100781.25;2067522;28;20038;-63
2022/07/01 18:31:36;;;;;;;6.22;3.10;;;;;;;20.98;82.49;100778.53;2055665;28;20026;-62
2022/07/01 18:32:40;;;;;;;4.28;2.72;;;;;;;20.99;82.45;100787.53;2069785;28;20038;-64
2022/07/01 18:33:49;;;;;;;4.22;2.88;;;;;;;20.98;82.73;100783.22;2072188;28;20624;-63
2022/07/01 18:34:55;;;;;;;4.47;3.03;;;;;;;21.02;82.81;100793.09;2061708;28;20394;-65
2022/07/01 18:36:02;;;;;;;5.70;3.05;;;;;;;21.05;82.00;100803.34;2066973;28;20050;-63
2022/07/01 18:37:06;;;;;;;8.10;2.95;;;;;;;21.10;81.82;100807.00;2058829;28;20588;-63
2022/07/01 18:38:09;;;;;;;6.68;3.08;;;;;;;21.02;81.91;100814.97;2059618;28;20952;-62
2022/07/01 18:39:13;;;;;;;4.78;3.17;;;;;;;21.02;81.85;100809.50;2070710;28;20045;-62
2022/07/01 18:40:26;;;;;;;6.15;3.08;;;;;;;21.02;81.91;100822.38;2071405;28;20049;-61
2022/07/01 18:41:28;;;;;;;;;;;;;;;21.06;81.97;100813.16;2065694;28;20640;-62
2022/07/01 18:42:31;;;;;;;6.07;2.70;;;;;;;21.08;82.02;100814.75;2064585;28;19924;-64
2022/07/01 18:43:33;;;;;;;5.32;3.47;;;;;;;21.10;81.84;100809.75;2071681;28;20052;-62
2022/07/01 18:44:40;;;;;;;3.15;2.58;;;;;;;21.10;81.66;100809.75;2066027;28;20041;-62
2022/07/01 18:45:45;;;;;;;6.60;2.65;;;;;;;21.10;81.78;100809.75;2070678;28;20036;-62
2022/07/01 18:46:48;;;;;;;5.85;3.05;;;;;;;21.09;81.65;100802.66;2071633;28;20049;-62
2022/07/01 18:47:53;;;;;;;5.18;2.90;;;;;;;21.09;82.03;100794.47;2059737;28;20057;-64
2022/07/01 18:48:56;;;;;;;6.00;2.90;;;;;;;21.06;81.86;100795.97;2053894;28;20065;-62
2022/07/01 18:50:02;;;;;;;4.30;2.95;;;;;;;21.06;81.95;100796.75;2070092;28;20580;-62
2022/07/01 18:51:05;;;;;;;5.95;2.92;;;;;;;21.05;82.23;100805.28;2060272;28;20050;-62
2022/07/01 18:52:09;;;;;;;6.45;2.90;;;;;;;21.06;82.18;100801.44;2064352;28;20050;-62
2022/07/01 18:53:11;;;;;;;7.00;3.03;;;;;;;21.06;82.47;100804.97;2059833;28;20050;-62
2022/07/01 18:54:16;;;;;;;4.18;2.90;;;;;;;21.04;81.84;100820.91;2066000;28;20698;-62
2022/07/01 18:55:18;;;;;;;4.43;2.70;;;;;;;20.99;82.00;100834.78;2053139;28;20706;-62
2022/07/01 18:56:23;;;;;;;7.35;2.95;;;;;;;20.98;82.04;100838.66;2063595;28;20060;-63
2022/07/01 18:57:29;;;;;;;3.55;2.55;;;;;;;20.99;82.49;100834.78;2068090;28;20050;-62
2022/07/01 18:58:33;;;;;;;4.53;3.20;;;;;;;21.02;82.67;100855.97;2063339;28;20038;-61
2022/07/01 18:59:45;;;;;;;5.38;3.33;;;;;;;21.02;82.00;100852.44;2064386;28;20066;-63
2022/07/01 19:00:48;;;;;;;5.03;2.90;;;;;;;20.99;82.39;100840.25;2069318;28;20569;-62
2022/07/01 19:01:51;;;;;;;7.05;3.40;;;;;;;20.95;82.31;100839.34;2056616;28;20365;-60
2022/07/01 19:02:57;;;;;;;6.53;2.88;;;;;;;20.92;82.30;100844.72;2062924;28;20061;-61
2022/07/01 19:03:59;;;;;;;4.85;3.10;;;;;;;20.92;82.43;100842.75;2058095;28;20038;-61
2022/07/01 19:05:10;;;;;;;5.70;3.10;;;;;;;20.94;82.05;100845.19;2067532;28;20069;-62
2022/07/01 19:06:12;;;;;;;7.32;3.05;;;;;;;20.97;82.07;100831.63;2071444;28;20049;-62
2022/07/01 19:07:14;;;;;;;6.13;2.80;;;;;;;21.00;81.66;100841.88;2068541;28;20046;-60
2022/07/01 19:08:20;;;;;;;6.03;3.20;;;;;;;21.02;81.49;100834.09;2070440;28;20353;-60
2022/07/01 19:09:22;;;;;;;5.80;2.92;;;;;;;21.05;81.37;100832.63;2067014;28;20042;-62
2022/07/01 19:10:24;;;;;;;5.05;2.65;;;;;;;21.10;80.82;100834.34;2055296;28;20039;-59
2022/07/01 19:11:26;;;;;;;5.85;3.10;;;;;;;21.11;80.01;100825.78;2057832;28;20696;-62
2022/07/01 19:12:30;;;;;;;5.60;2.72;;;;;;;21.16;79.16;100824.78;2060547;28;20045;-62
2022/07/01 19:13:33;;;;;;;5.30;2.50;;;;;;;21.21;78.76;100821.78;2063326;28;20054;-62
2022/07/01 19:14:35;;;;;;;4.70;2.53;;;;;;;21.24;78.82;100810.16;2067942;28;20761;-61
2022/07/01 19:15:38;;;;;;;4.93;2.75;;;;;;;21.31;78.92;100810.38;2061053;28;20034;-62
2022/07/01 19:16:43;;;;;;;5.85;2.80;;;;;;;21.36;78.81;100814.84;2056434;28;20046;-64
2022/07/01 19:17:48;;;;;;;5.22;2.80;;;;;;;21.38;78.58;100810.63;2054902;28;20133;-62
2022/07/01 19:18:50;;;;;;;3.42;2.97;;;;;;;21.38;78.35;100813.38;2038789;28;20798;-60
2022/07/01 19:19:57;;;;;;;8.23;3.13;;;;;;;21.35;78.32;100805.84;2048827;28;20050;-63
2022/07/01 19:21:04;;;;;;;6.25;3.30;;;;;;;21.37;78.59;100813.69;2048187;28;20051;-61
2022/07/01 19:22:08;;;;;;;5.90;3.13;;;;;;;21.33;78.24;100799.09;2060654;28;20061;-61
2022/07/01 19:23:11;;;;;;;5.15;3.08;;;;;;;21.31;77.98;100796.69;2062001;28;20057;-61
2022/07/01 19:24:13;;;;;;;6.38;3.55;;;;;;;21.21;78.28;100802.66;2066291;28;20057;-61
2022/07/01 19:25:16;;;;;;;8.27;3.22;;;;;;;21.12;78.35;100791.03;2059204;28;20038;-60
2022/07/01 19:26:21;;;;;;;5.30;2.88;;;;;;;21.13;78.21;100778.97;2060021;28;20050;-61
2022/07/01 19:27:23;;;;;;;6.82;3.50;;;;;;;21.13;78.43;100759.84;2060665;28;20077;-62
2022/07/01 19:28:26;;;;;;;7.00;3.60;;;;;;;21.08;79.00;100747.19;2061060;28;20077;-62
2022/07/01 19:29:28;;;;;;;6.88;3.53;;;;;;;21.02;79.55;100746.63;2052018;28;20046;-61
2022/07/01 19:30:29;;;;;;;5.32;3.20;;;;;;;20.94;78.84;100733.91;2049468;28;20078;-61
2022/07/01 19:31:33;;;;;;;6.03;3.30;;;;;;;21.01;79.01;100733.31;2047925;28;20062;-61
2022/07/01 19:32:38;;;;;;;5.35;3.78;;;;;;;21.04;79.47;100730.69;2060816;28;20053;-63
2022/07/01 19:33:44;;;;;;;9.15;3.47;;;;;;;21.02;78.75;100724.75;2050427;28;20059;-60
2022/07/01 19:34:50;;;;;;;5.43;3.83;;;;;;;21.08;78.28;100716.31;2056512;28;20042;-62
2022/07/01 19:35:52;;;;;;;4.53;3.10;;;;;;;21.15;78.01;100708.31;2054837;28;20062;-62
2022/07/01 19:36:57;;;;;;;6.88;3.60;;;;;;;21.16;78.02;100699.00;2039576;28;20664;-62
2022/07/01 19:37:59;;;;;;;8.13;3.30;;;;;;;21.18;77.59;100683.03;2058245;28;20050;-62
2022/07/01 19:39:05;;;;;;;5.85;3.28;;;;;;;21.21;77.02;100677.66;2058354;28;20571;-61
2022/07/01 19:40:10;;;;;;;6.97;3.88;;;;;;;21.15;76.99;100657.16;2054326;28;20096;-63
2022/07/01 19:41:12;;;;;;;4.82;3.63;;;;;;;21.11;76.97;100650.03;2057731;28;20045;-63
2022/07/01 19:42:22;;;;;;;6.38;3.50;;;;;;;21.13;76.64;100647.75;2062785;28;20053;-64
2022/07/01 19:43:25;;;;;;;5.05;3.65;;;;;;;21.13;76.67;100659.47;2063219;28;20703;-64
2022/07/01 19:44:28;;;;;;;8.48;3.65;;;;;;;21.12;76.83;100657.06;2050360;28;20045;-64
2022/07/01 19:45:29;;;;;;;7.82;3.58;;;;;;;21.12;76.53;100646.13;2048045;28;20042;-63
2022/07/01 19:46:35;;;;;;;4.85;3.42;;;;;;;21.09;75.95;100633.97;2060051;28;20042;-63
2022/07/01 19:47:37;;;;;;;3.60;2.88;;;;;;;21.08;76.14;100631.59;2053249;28;20043;-62
2022/07/01 19:48:40;;;;;;;6.88;3.45;;;;;;;21.08;75.84;100634.31;2051616;28;20597;-64
2022/07/01 19:49:43;;;;;;;7.00;2.95;;;;;;;20.92;77.92;100640.50;2041534;28;20059;-65
2022/07/01 19:50:46;;;;;;;10.80;3.85;;;;;;;20.84;78.58;100641.47;2066957;28;20050;-64
2022/07/01 19:51:51;;;;;;;10.20;3.63;;;;;;;20.83;76.90;100648.06;2061585;28;20053;-62
2022/07/01 19:52:54;;;;;;;8.38;3.17;;;;;;;20.90;77.40;100659.22;2061803;28;20583;-62
2022/07/01 19:53:59;;;;;;;8.45;3.42;;;;;;;20.96;77.80;100663.25;2057948;28;20041;-64
2022/07/01 19:55:04;;;;;;;5.40;3.35;;;;;;;21.03;78.00;100677.16;2056889;28;20049;-62
2022/07/01 19:56:07;;;;;;;6.45;2.95;;;;;;;21.08;77.62;100697.19;2049593;28;20523;-63
2022/07/01 19:57:10;;;;;;;7.72;3.10;;;;;;;21.14;77.47;100714.94;2059041;28;20739;-62
2022/07/01 19:58:14;;;;;;;7.97;3.20;;;;;;;21.22;77.84;100722.22;2059832;28;20958;-62
2022/07/01 19:59:16;;;;;;;4.90;3.03;;;;;;;21.26;78.46;100718.44;2061437;28;20046;-62
2022/07/01 20:00:21;;;;;;;7.35;4.00;;;;;;;21.26;79.12;100712.97;2050332;28;20046;-65
2022/07/01 20:01:25;;;;;;;8.05;3.70;;;;;;;21.21;80.35;100698.75;2049442;28;20058;-63
2022/07/01 20:02:27;;;;;;;9.25;4.00;;;;;;;21.21;80.26;100702.25;2052692;28;20115;-62
2022/07/01 20:03:29;;;;;;;9.77;4.60;;;;;;;21.17;81.01;100698.63;2055787;28;20058;-63
2022/07/01 20:04:35;;;;;;;11.23;4.70;;;;;;;21.13;81.70;100696.97;2053856;28;20573;-63
2022/07/01 20:05:40;;;;;;;7.78;4.40;;;;;;;21.09;82.20;100718.72;2059799;28;20926;-62
2022/07/01 20:06:45;;;;;;;11.13;5.13;;;;;;;21.07;82.57;100721.00;2064453;28;20069;-62
2022/07/01 20:07:52;;;;;;;9.05;4.03;;;;;;;21.09;82.22;100723.38;2071961;28;20572;-62
2022/07/01 20:08:54;;;;;;;8.77;4.90;;;;;;;21.08;82.38;100719.06;2065488;28;20065;-62
2022/07/01 20:09:58;;;;;;;15.73;5.68;;;;;;;21.08;82.81;100725.31;2040150;28;20082;-63
2022/07/01 20:11:06;;;;;;;9.10;4.85;;;;;;;21.11;83.09;100721.09;2036425;28;20518;-63
2022/07/01 20:12:12;;;;;;;9.02;4.80;;;;;;;21.14;83.10;100720.41;2059432;28;20077;-63
2022/07/01 20:13:18;;;;;;;8.05;4.80;;;;;;;21.21;83.17;100721.41;2061227;28;20785;-62
2022/07/01 20:14:25;;;;;;;9.43;3.63;;;;;;;21.24;82.48;100715.25;2059853;28;20380;-64
2022/07/01 20:15:33;;;;;;;9.05;4.90;;;;;;;21.26;82.07;100714.91;2069516;28;20057;-63
2022/07/01 20:16:35;;;;;;;19.45;8.88;;;;;;;21.28;82.42;100716.16;2061789;28;20065;-62
2022/07/01 20:17:51;;;;;;;9.88;5.18;;;;;;;21.29;82.26;100711.47;2057980;28;20042;-64
2022/07/01 20:19:10;;;;;;;10.55;4.15;;;;;;;21.29;81.61;100706.00;2063670;28;20149;-64
2022/07/01 20:20:18;;;;;;;10.10;3.10;;;;;;;21.33;80.47;100709.63;2060636;28;20042;-63
2022/07/01 20:21:29;;;;;;;7.03;3.80;;;;;;;21.32;78.55;100699.84;2065404;28;20050;-62
2022/07/01 20:22:43;;;;;;;6.10;3.25;;;;;;;21.33;77.86;100706.91;2064687;28;20053;-70
2022/07/01 20:23:53;;;;;;;4.63;3.50;;;;;;;21.38;76.12;100714.91;2063041;28;20061;-65
2022/07/01 20:25:02;;;;;;;9.75;4.15;;;;;;;21.42;77.15;100718.53;2062144;28;20053;-63
2022/07/01 20:26:05;;;;;;;6.00;3.63;;;;;;;21.44;76.25;100712.72;2054680;28;20921;-62
2022/07/01 20:27:13;;;;;;;4.40;2.97;;;;;;;21.47;74.95;100712.03;2059866;28;20057;-65
2022/07/01 20:28:20;;;;;;;7.38;3.30;;;;;;;;;;2065416;28;20076;-63
2022/07/01 20:29:27;;;;;;;5.80;2.90;;;;;;;21.49;73.87;100705.03;2063810;28;20052;-64
2022/07/01 20:30:36;;;;;;;6.53;3.05;;;;;;;21.56;75.03;100720.06;2058058;28;20038;-63
2022/07/01 20:31:38;;;;;;;6.35;3.95;;;;;;;21.52;77.07;100731.69;2057635;28;20057;-63
2022/07/01 20:32:41;;;;;;;6.15;3.65;;;;;;;21.49;77.25;100735.13;2039338;28;20051;-62
2022/07/01 20:33:43;;;;;;;8.13;3.92;;;;;;;21.47;76.52;100737.44;2055637;28;20841;-62
2022/07/01 20:34:49;;;;;;;6.00;3.50;;;;;;;21.42;77.04;100737.69;2057732;28;20061;-63
2022/07/01 20:35:56;;;;;;;11.07;3.13;;;;;;;21.37;75.97;100748.84;2042432;28;20050;-62
2022/07/01 20:36:58;;;;;;;5.65;2.80;;;;;;;21.37;76.06;100757.06;2051345;28;20049;-63
2022/07/01 20:38:00;;;;;;;9.68;2.88;;;;;;;21.37;75.90;100751.59;2058851;28;20061;-62
2022/07/01 20:39:03;;;;;;;5.43;3.25;;;;;;;21.30;76.21;100752.16;2069057;28;20157;-62
2022/07/01 20:40:09;;;;;;;4.93;2.95;;;;;;;21.31;76.65;100763.88;2059819;28;20069;-62
2022/07/01 20:41:12;;;;;;;6.60;3.40;;;;;;;21.26;77.24;100775.06;2061702;28;20054;-62
2022/07/01 20:42:16;;;;;;;5.45;3.35;;;;;;;21.18;77.74;100784.19;2071440;28;20505;-62
2022/07/01 20:43:18;;;;;;;11.40;3.10;;;;;;;21.10;79.00;100776.94;2061186;28;20037;-63
2022/07/01 20:44:21;;;;;;;7.50;3.30;;;;;;;21.07;79.91;100792.09;2051417;28;20057;-62
2022/07/01 20:45:22;;;;;;;8.15;3.35;;;;;;;21.03;80.14;100786.50;2048092;28;20050;-62
2022/07/01 20:46:24;;;;;;;13.60;3.65;;;;;;;20.95;81.03;100805.75;2057478;28;20066;-60
2022/07/01 20:47:28;;;;;;;7.57;3.85;;;;;;;20.83;81.69;100790.16;2066566;28;20054;-62
2022/07/01 20:48:30;;;;;;;9.48;3.60;;;;;;;20.74;82.44;100795.75;2067271;28;20065;-63
2022/07/01 20:49:33;;;;;;;9.63;3.53;;;;;;;20.66;83.49;100783.00;2067198;28;20065;-62
2022/07/01 20:50:35;;;;;;;11.07;3.58;;;;;;;20.68;83.33;100779.91;2057263;28;20058;-62
2022/07/01 20:51:37;;;;;;;6.88;3.60;;;;;;;20.63;84.02;100788.34;2050949;28;20051;-63
2022/07/01 20:52:41;;;;;;;9.80;3.83;;;;;;;20.54;84.34;100775.56;2050483;28;20803;-62
2022/07/01 20:53:46;;;;;;;12.63;4.07;;;;;;;20.54;85.13;100772.84;2064107;28;20041;-62
2022/07/01 20:54:49;;;;;;;10.35;4.22;;;;;;;20.48;85.94;100771.44;2066245;28;20061;-62
2022/07/01 20:55:51;;;;;;;9.40;3.65;;;;;;;20.47;86.09;100772.59;2059170;28;20053;-61
2022/07/01 20:56:55;;;;;;;14.38;4.30;;;;;;;20.46;86.47;100768.28;2053994;28;20061;-61
2022/07/01 20:57:59;;;;;;;9.60;3.92;;;;;;;20.46;86.62;100768.28;2065803;28;20080;-61
2022/07/01 20:59:01;;;;;;;10.02;3.60;;;;;;;20.42;87.01;100777.47;2066296;28;20046;-62
2022/07/01 21:00:06;;;;;;;13.57;4.50;;;;;;;20.40;87.19;100777.81;2058472;28;20057;-62
2022/07/01 21:01:11;;;;;;;10.68;3.58;;;;;;;20.38;87.35;100782.81;2050867;28;20058;-62
2022/07/01 21:02:25;;;;;;;6.90;4.00;;;;;;;20.39;87.07;100784.41;2033402;28;20050;-64
2022/07/01 21:03:30;;;;;;;7.25;3.65;;;;;;;20.44;86.82;100789.66;2059827;28;20281;-62
2022/07/01 21:04:36;;;;;;;12.85;3.83;;;;;;;20.44;86.47;100789.66;2058797;28;20096;-63
2022/07/01 21:05:38;;;;;;;12.10;3.67;;;;;;;20.42;86.40;100783.72;2052675;28;20062;-64
2022/07/01 21:06:40;;;;;;;9.52;3.67;;;;;;;20.44;86.08;100786.94;2061235;28;20089;-62
2022/07/01 21:07:43;;;;;;;8.38;3.65;;;;;;;20.47;86.16;100788.19;2059134;28;20054;-61
2022/07/01 21:08:47;;;;;;;12.18;3.88;;;;;;;20.50;86.02;100791.03;2058971;28;20057;-61
2022/07/01 21:09:54;;;;;;;11.25;3.72;;;;;;;20.52;85.93;100788.78;2057282;28;20054;-62
2022/07/01 21:10:59;;;;;;;8.77;3.97;;;;;;;20.52;85.64;100788.78;2058680;28;20058;-63
2022/07/01 21:12:02;;;;;;;12.77;3.75;;;;;;;20.55;86.04;100788.13;2062385;28;20053;-61
2022/07/01 21:13:11;;;;;;;11.43;3.80;;;;;;;20.57;86.08;100790.50;2064481;28;20077;-62
2022/07/01 21:14:16;;;;;;;10.85;3.95;;;;;;;20.59;85.62;100790.97;2062458;28;20072;-63
2022/07/01 21:15:20;;;;;;;9.07;3.90;;;;;;;20.57;85.47;100791.28;2064210;28;20049;-62
2022/07/01 21:16:30;;;;;;;10.50;4.25;;;;;;;20.59;85.44;100789.03;2053008;28;20050;-62
2022/07/01 21:17:33;;;;;;;12.45;3.53;;;;;;;20.60;85.31;100782.41;2055934;28;20059;-62
2022/07/01 21:18:35;;;;;;;11.70;3.90;;;;;;;20.58;85.28;100786.63;2055287;28;20030;-62
2022/07/01 21:19:45;;;;;;;10.98;3.40;;;;;;;20.58;85.23;100787.41;2050672;28;20058;-63
2022/07/01 21:20:51;;;;;;;7.70;3.80;;;;;;;20.59;85.11;100794.50;2042816;28;20050;-62
2022/07/01 21:21:57;;;;;;;17.25;4.15;;;;;;;20.62;84.93;100797.66;2063260;28;20505;-61
2022/07/01 21:22:59;;;;;;;11.00;3.83;;;;;;;20.65;84.97;100799.72;2065569;28;20053;-62
2022/07/01 21:24:02;;;;;;;10.48;3.85;;;;;;;20.69;85.23;100800.66;2062278;28;20057;-62
2022/07/01 21:25:06;;;;;;;14.05;4.25;;;;;;;20.72;85.13;100802.69;2057924;28;20051;-62
2022/07/01 21:26:08;;;;;;;9.40;3.85;;;;;;;20.72;84.98;100786.31;2058079;28;20879;-61
2022/07/01 21:27:12;;;;;;;15.70;4.40;;;;;;;20.79;85.43;100791.97;2059001;28;20049;-62
2022/07/01 21:28:14;;;;;;;17.60;4.38;;;;;;;20.84;85.49;100789.03;2050773;28;20074;-62
2022/07/01 21:29:17;;;;;;;9.27;4.38;;;;;;;20.90;85.75;100793.13;2050661;28;20058;-62
2022/07/01 21:30:25;;;;;;;9.15;4.20;;;;;;;20.93;85.93;100797.91;2066963;28;20072;-61
2022/07/01 21:31:31;;;;;;;13.30;4.82;;;;;;;20.94;86.10;100791.31;2062729;28;20150;-61
2022/07/01 21:32:34;;;;;;;9.05;4.55;;;;;;;20.97;86.22;100790.63;2065955;28;20113;-61
2022/07/01 21:33:38;;;;;;;11.52;4.75;;;;;;;20.91;85.75;100789.25;2075933;28;20050;-61
2022/07/01 21:34:51;;;;;;;10.15;4.10;;;;;;;20.86;86.23;100792.19;2070308;28;20037;-60
2022/07/01 21:35:54;;;;;;;11.95;5.03;;;;;;;20.87;86.38;100782.88;2062894;28;20054;-62
2022/07/01 21:37:01;;;;;;;9.68;4.68;;;;;;;20.88;86.23;100780.94;2044381;28;20051;-63
2022/07/01 21:38:09;;;;;;;10.77;4.43;;;;;;;20.88;86.32;100779.00;2053021;28;20046;-63
2022/07/01 21:39:15;;;;;;;11.85;4.78;;;;;;;20.82;86.31;100786.63;2064970;28;20065;-62
2022/07/01 21:40:19;;;;;;;13.23;5.28;;;;;;;20.78;86.48;100785.72;2066338;28;20046;-62
2022/07/01 21:41:23;;;;;;;15.55;5.25;;;;;;;20.79;86.62;100794.72;2067558;28;20042;-64
2022/07/01 21:42:29;;;;;;;12.35;4.95;;;;;;;20.80;87.00;100796.31;2059336;28;20409;-63
2022/07/01 21:43:31;;;;;;;13.82;5.13;;;;;;;20.76;86.92;100792.66;2060743;28;20061;-62
2022/07/01 21:44:34;;;;;;;16.95;5.30;;;;;;;20.68;87.03;100797.13;2064200;28;20061;-63
2022/07/01 21:45:38;;;;;;;12.07;6.15;;;;;;;20.59;87.41;100789.03;2055275;28;20042;-62
2022/07/01 21:46:44;;;;;;;14.35;5.53;;;;;;;20.46;87.72;100790.13;2067315;28;20813;-63
2022/07/01 21:47:47;;;;;;;16.60;5.40;;;;;;;20.36;87.95;100796.00;2064426;28;20100;-62
2022/07/01 21:48:52;;;;;;;17.45;6.72;;;;;;;20.30;88.35;100792.72;2065151;28;20042;-62
2022/07/01 21:49:57;;;;;;;14.65;6.20;;;;;;;20.27;88.50;100796.13;2068384;28;20045;-63
2022/07/01 21:51:03;;;;;;;13.23;6.32;;;;;;;20.18;88.49;100802.81;2068817;28;20037;-63
2022/07/01 21:52:08;;;;;;;12.30;6.35;;;;;;;20.12;88.53;100803.03;2066446;28;20042;-63
2022/07/01 21:53:11;;;;;;;18.88;7.38;;;;;;;20.11;88.96;100815.09;2067886;28;20038;-61
2022/07/01 21:54:20;;;;;;;14.02;6.90;;;;;;;20.02;89.17;100810.81;2056610;28;20069;-63
2022/07/01 21:55:24;;;;;;;10.93;7.15;;;;;;;19.93;89.14;100810.13;2056650;28;20050;-63
2022/07/01 21:56:33;;;;;;;12.00;7.22;;;;;;;19.93;89.45;100805.47;2059568;28;20057;-64
2022/07/01 21:57:39;;;;;;;11.32;7.03;;;;;;;19.89;89.48;100818.16;2065346;28;20041;-63
2022/07/01 21:58:42;;;;;;;9.20;7.15;;;;;;;19.86;89.80;100816.09;2067319;28;20053;-62
2022/07/01 21:59:44;;;;;;;11.55;7.10;;;;;;;19.81;89.95;100819.06;2059798;28;20137;-62
2022/07/01 22:00:51;;;;;;;10.35;6.53;;;;;;;19.78;89.91;100815.06;2060990;28;20094;-63
2022/07/01 22:01:53;;;;;;;11.52;7.05;;;;;;;19.80;90.28;100815.53;2066391;28;20046;-62
2022/07/01 22:02:57;;;;;;;9.73;6.72;;;;;;;19.75;90.32;100814.94;2060152;28;20675;-63
2022/07/01 22:04:04;;;;;;;10.02;6.70;;;;;;;19.77;90.32;100818.13;2059016;28;20050;-63
2022/07/01 22:05:09;;;;;;;13.60;6.90;;;;;;;19.76;90.27;100819.25;2066428;28;20038;-64
2022/07/01 22:07:19;;;;;;;11.75;6.60;;;;;;;19.72;90.27;100812.88;2066803;28;20053;-63
2022/07/01 22:08:24;;;;;;;12.93;6.85;;;;;;;19.70;90.16;100818.63;2067897;28;20060;-63
2022/07/01 22:09:32;;;;;;;9.50;5.97;;;;;;;19.67;90.15;100817.41;2065190;28;20050;-62
2022/07/01 22:10:36;;;;;;;11.68;6.13;;;;;;;19.71;90.26;100824.91;2067327;28;20045;-62
2022/07/01 22:11:41;;;;;;;8.32;6.03;;;;;;;19.75;90.30;100820.38;2067980;28;20065;-63
2022/07/01 22:12:46;;;;;;;10.38;6.20;;;;;;;19.81;90.19;100830.75;2057362;28;20050;-62
2022/07/01 22:14:08;;;;;;;10.77;6.47;;;;;;;19.88;90.31;100831.00;2054428;28;20686;-63
2022/07/01 22:15:12;;;;;;;9.70;5.82;;;;;;;19.93;89.83;100832.75;2067026;28;20092;-62
2022/07/01 22:16:14;;;;;;;10.57;6.20;;;;;;;19.98;89.53;100839.91;2056783;28;20047;-62
2022/07/01 22:17:22;;;;;;;11.55;6.05;;;;;;;20.04;89.25;100833.91;2061163;28;20053;-62
2022/07/01 22:18:30;;;;;;;10.25;6.55;;;;;;;20.07;88.69;100843.38;2062188;28;20215;-62
2022/07/01 22:19:34;;;;;;;9.13;5.30;;;;;;;20.10;88.66;100854.41;2064341;28;20038;-62
2022/07/01 22:20:38;;;;;;;10.88;6.35;;;;;;;20.14;88.34;100849.91;2063440;28;20252;-62
2022/07/01 22:21:42;;;;;;;13.45;5.55;;;;;;;20.18;88.01;100860.16;2062915;28;20042;-62
2022/07/01 22:22:54;;;;;;;8.88;5.63;;;;;;;20.19;87.78;100859.00;2061977;28;20050;-63
2022/07/01 22:23:59;;;;;;;7.53;5.43;;;;;;;20.14;87.30;100860.81;2067871;28;20045;-62
2022/07/01 22:25:03;;;;;;;8.77;6.03;;;;;;;20.12;87.06;100865.81;2063472;28;20046;-62
2022/07/01 22:26:08;;;;;;;10.45;6.05;;;;;;;20.09;87.20;100869.19;2065230;28;20042;-63
2022/07/01 22:27:11;;;;;;;13.77;6.25;;;;;;;20.10;87.32;100868.06;2056772;28;20249;-63
2022/07/01 22:28:15;;;;;;;11.70;6.65;;;;;;;20.05;87.41;100868.28;2048376;28;20054;-63
2022/07/01 22:29:17;;;;;;;9.60;6.10;;;;;;;20.01;87.63;100878.25;2061546;28;20042;-63
2022/07/01 22:30:24;;;;;;;10.68;6.25;;;;;;;19.87;88.11;100875.00;2065896;28;20049;-62
2022/07/01 22:31:32;;;;;;;10.98;6.22;;;;;;;19.76;88.92;100877.31;2061662;28;20038;-62
2022/07/01 22:32:35;;;;;;;8.85;6.75;;;;;;;19.72;89.09;100865.50;2067467;28;20042;-62
2022/07/01 22:33:43;;;;;;;11.70;7.20;;;;;;;19.68;89.31;100870.03;2070560;28;20061;-62
2022/07/01 22:34:47;;;;;;;20.80;11.43;;;;;;;19.62;89.66;100871.31;2068518;28;20034;-62
2022/07/01 22:35:52;;;;;;;22.23;12.65;;;;;;;19.60;90.07;100879.81;2072193;28;20049;-62
2022/07/01 22:36:56;;;;;;;12.52;7.05;;;;;;;19.61;90.04;100884.16;2071187;28;20041;-63
2022/07/01 22:38:01;;;;;;;15.18;7.93;;;;;;;19.58;90.24;100884.03;2075926;28;20065;-63
2022/07/01 22:39:05;;;;;;;20.13;12.68;;;;;;;19.48;90.55;100877.00;2071781;28;20045;-62
2022/07/01 22:40:14;;;;;;;19.02;8.55;;;;;;;19.47;90.86;100869.97;2065184;28;20062;-63
2022/07/01 22:41:20;;;;;;;16.55;9.70;;;;;;;19.43;91.21;100869.03;2067284;28;20049;-62
2022/07/01 22:42:24;;;;;;;15.38;9.32;;;;;;;19.37;91.57;100871.16;2061473;28;20038;-62
2022/07/01 22:43:29;;;;;;;16.10;9.20;;;;;;;19.28;91.72;100864.94;2068559;28;20128;-62
2022/07/01 22:44:32;;;;;;;15.90;8.60;;;;;;;19.30;92.17;100870.09;2068369;28;20030;-62
2022/07/01 22:45:55;;;;;;;15.60;9.02;;;;;;;19.39;92.38;100870.84;2068387;28;20042;-62
2022/07/01 22:47:09;;;;;;;13.63;9.07;;;;;;;19.48;92.25;100866.09;2062799;28;20394;-62
2022/07/01 22:48:19;;;;;;;16.98;10.00;;;;;;;19.48;92.20;100866.09;2060807;28;20633;-62
2022/07/01 22:49:32;;;;;;;20.80;10.50;;;;;;;19.51;92.18;100859.19;2069590;28;20663;-62
2022/07/01 22:50:40;;;;;;;14.25;9.23;;;;;;;19.53;92.23;100860.47;2068200;28;20053;-62
2022/07/01 22:52:04;;;;;;;14.60;8.98;;;;;;;19.48;92.06;100863.38;2069683;28;20294;-61
2022/07/01 22:53:25;;;;;;;18.02;9.85;;;;;;;19.44;91.92;100865.19;2067507;28;20049;-63
2022/07/01 22:54:44;;;;;;;12.93;8.55;;;;;;;19.54;92.17;100869.44;2069553;28;20553;-62
2022/07/01 22:55:57;;;;;;;14.73;7.93;;;;;;;19.62;92.33;100872.13;2069527;28;20050;-62
2022/07/01 22:57:05;;;;;;;14.32;8.77;;;;;;;19.69;92.20;100877.06;2062587;28;20057;-61
2022/07/01 22:58:28;;;;;;;15.38;9.45;;;;;;;19.75;91.82;100881.19;2058325;28;20042;-62
2022/07/01 22:59:32;;;;;;;14.75;8.73;;;;;;;19.68;91.43;100887.19;2057421;28;20046;-62
2022/07/01 23:00:36;;;;;;;17.55;9.00;;;;;;;19.72;91.37;100897.44;2063086;28;20442;-62
2022/07/01 23:01:44;;;;;;;15.63;8.60;;;;;;;19.76;91.28;100892.91;2063499;28;20049;-61
2022/07/01 23:02:56;;;;;;;14.88;9.13;;;;;;;19.82;91.44;100897.81;2069686;28;20521;-62
2022/07/01 23:04:08;;;;;;;18.40;9.02;;;;;;;19.90;91.23;100893.44;2069179;28;20109;-63
2022/07/01 23:05:12;;;;;;;12.63;8.75;;;;;;;19.94;91.02;100893.59;2061187;28;20042;-62
2022/07/01 23:06:23;;;;;;;14.75;8.25;;;;;;;19.98;90.72;100889.84;2063043;28;20050;-63
2022/07/01 23:07:48;;;;;;;14.02;8.82;;;;;;;20.01;90.24;100886.44;2074499;28;20052;-63